Fort Lauderdale, FL (33301)

9:03 PM EST on January 17, 2017 (GMT -0500)
Victoria Park | | Change Station

Elev 23 ft 26.13 °N, 80.13 °W | Updated 6 seconds ago

Clear
Clear
73.4 °F
Feels Like 76 °F
N
0.0
Wind Variable Wind from East
Gusts 0.0 mph

Today
High -- | Low -- °F
--% Chance of Precip.
Yesterday
High -- | Low -- °F
Precip. -- in
Pressure 30.21 in
Visibility 10.0 miles
Clouds Scattered Clouds 25000 ft
Heat Index 76 °F
Dew Point 63 °F
Humidity 69%
Rainfall 0.00 in
Snow Depth Not available.
7:09 AM 5:52 PM
Waning Gibbous, 68% visible
METAR KFLL 180153Z 10007KT 10SM SCT250 23/16 A3021 RMK AO2 SLP228 T02280161
Pressure 30.21 in
Visibility 10.0 miles
Clouds Scattered Clouds 25000 ft
Heat Index 76 °F
Dew Point 63 °F
Humidity 69%
Rainfall 0.00 in
Snow Depth Not available.
7:09 AM 5:52 PM
Waning Gibbous, 68% visible
METAR KFLL 180153Z 10007KT 10SM SCT250 23/16 A3021 RMK AO2 SLP228 T02280161

Get Your Daily Forecast Email!

Thanks for signing up!

Be on the lookout for a verification email in your inbox.

You'll start receiving the daily forecast at 8 AM.

×

10-Day Weather Forecast

Almanac

Astronomy

Jan. 17, 2017 Rise Set
Actual Time
Civil Twilight
Nautical Twilight
Astronomical Twilight
Moon
Length of Visible Light
Length of Day
Tomorrow will be .
, % of the Moon is Illuminated

Today's Extremes

State Highs State Lows

Community

WunderPhotos

Upload Photos

1,962,540 photos uploaded!

WunderBlog® & News

Nearby

Air Quality

  Air Quality AQ Index Pollutant
Not available.

Snow Depth

Station Depth Elevation

Earthquake Activity

City Distance Mag. Time & Date
Minimum magnitude displayed is 2.5.

Coastal Water Temperatures

Place Temperature

Stations

Nearby Weather Stations

Station Location Temp. Windchill Dew Point Humidity Wind Precip. Elev Updated Type
                   

Watches & Warnings

There are currently no watches in effect.